sensor_id;sensor_type;location;lat;lon;timestamp;P1;durP1;ratioP1;P2;durP2;ratioP2
68188;SDS011;66299;47.514;19.218;2023-09-18T00:01:52;17.00;;;8.85;;
68188;SDS011;66299;47.514;19.218;2023-09-18T00:04:24;14.10;;;8.60;;
68188;SDS011;66299;47.514;19.218;2023-09-18T00:06:54;13.98;;;8.48;;
68188;SDS011;66299;47.514;19.218;2023-09-18T00:09:23;17.13;;;8.60;;
68188;SDS011;66299;47.514;19.218;2023-09-18T00:11:52;15.25;;;8.55;;
68188;SDS011;66299;47.514;19.218;2023-09-18T00:14:20;15.68;;;8.63;;
68188;SDS011;66299;47.514;19.218;2023-09-18T00:16:52;16.35;;;8.68;;
68188;SDS011;66299;47.514;19.218;2023-09-18T00:19:24;15.68;;;8.63;;
68188;SDS011;66299;47.514;19.218;2023-09-18T00:21:54;17.73;;;8.75;;
68188;SDS011;66299;47.514;19.218;2023-09-18T00:24:27;15.02;;;8.98;;
68188;SDS011;66299;47.514;19.218;2023-09-18T00:26:56;15.82;;;8.98;;
68188;SDS011;66299;47.514;19.218;2023-09-18T00:29:25;15.90;;;8.57;;
68188;SDS011;66299;47.514;19.218;2023-09-18T00:31:55;17.77;;;9.00;;
68188;SDS011;66299;47.514;19.218;2023-09-18T00:34:24;14.50;;;8.70;;
68188;SDS011;66299;47.514;19.218;2023-09-18T00:36:53;16.80;;;9.73;;
68188;SDS011;66299;47.514;19.218;2023-09-18T00:39:22;17.90;;;9.77;;
68188;SDS011;66299;47.514;19.218;2023-09-18T00:41:50;18.95;;;10.10;;
68188;SDS011;66299;47.514;19.218;2023-09-18T00:44:24;24.15;;;15.55;;
68188;SDS011;66299;47.514;19.218;2023-09-18T00:46:53;18.35;;;10.15;;
68188;SDS011;66299;47.514;19.218;2023-09-18T00:49:26;16.45;;;9.52;;
68188;SDS011;66299;47.514;19.218;2023-09-18T00:51:55;15.30;;;9.50;;
68188;SDS011;66299;47.514;19.218;2023-09-18T00:54:25;16.95;;;10.07;;
68188;SDS011;66299;47.514;19.218;2023-09-18T00:56:54;18.73;;;10.13;;
68188;SDS011;66299;47.514;19.218;2023-09-18T00:59:23;18.50;;;10.07;;
68188;SDS011;66299;47.514;19.218;2023-09-18T01:01:51;16.63;;;9.98;;
68188;SDS011;66299;47.514;19.218;2023-09-18T01:04:22;16.15;;;9.75;;
68188;SDS011;66299;47.514;19.218;2023-09-18T01:06:53;16.13;;;9.90;;
68188;SDS011;66299;47.514;19.218;2023-09-18T01:09:24;18.05;;;10.85;;
68188;SDS011;66299;47.514;19.218;2023-09-18T01:11:54;19.33;;;10.50;;
68188;SDS011;66299;47.514;19.218;2023-09-18T01:14:31;16.70;;;10.48;;
68188;SDS011;66299;47.514;19.218;2023-09-18T01:17:05;22.05;;;11.05;;
68188;SDS011;66299;47.514;19.218;2023-09-18T01:19:41;27.08;;;10.68;;
68188;SDS011;66299;47.514;19.218;2023-09-18T01:22:13;18.67;;;10.68;;
68188;SDS011;66299;47.514;19.218;2023-09-18T01:24:44;18.17;;;11.43;;
68188;SDS011;66299;47.514;19.218;2023-09-18T01:27:16;16.25;;;10.43;;
68188;SDS011;66299;47.514;19.218;2023-09-18T01:29:47;17.67;;;10.52;;
68188;SDS011;66299;47.514;19.218;2023-09-18T01:32:17;19.83;;;10.68;;
68188;SDS011;66299;47.514;19.218;2023-09-18T01:34:46;17.38;;;10.60;;
68188;SDS011;66299;47.514;19.218;2023-09-18T01:37:16;19.50;;;10.68;;
68188;SDS011;66299;47.514;19.218;2023-09-18T01:39:50;19.27;;;10.25;;
68188;SDS011;66299;47.514;19.218;2023-09-18T01:42:19;19.88;;;11.05;;
68188;SDS011;66299;47.514;19.218;2023-09-18T01:44:49;17.80;;;10.90;;
68188;SDS011;66299;47.514;19.218;2023-09-18T01:47:20;19.95;;;10.88;;
68188;SDS011;66299;47.514;19.218;2023-09-18T01:49:51;20.07;;;10.93;;
68188;SDS011;66299;47.514;19.218;2023-09-18T01:52:20;20.08;;;11.05;;
68188;SDS011;66299;47.514;19.218;2023-09-18T01:54:51;18.77;;;10.45;;
68188;SDS011;66299;47.514;19.218;2023-09-18T01:57:20;18.33;;;10.50;;
68188;SDS011;66299;47.514;19.218;2023-09-18T01:59:48;19.90;;;10.45;;
68188;SDS011;66299;47.514;19.218;2023-09-18T02:02:19;18.95;;;10.57;;
68188;SDS011;66299;47.514;19.218;2023-09-18T02:05:00;18.45;;;10.55;;
68188;SDS011;66299;47.514;19.218;2023-09-18T02:07:35;21.83;;;10.95;;
68188;SDS011;66299;47.514;19.218;2023-09-18T02:10:06;17.75;;;10.32;;
68188;SDS011;66299;47.514;19.218;2023-09-18T02:12:38;19.33;;;11.23;;
68188;SDS011;66299;47.514;19.218;2023-09-18T02:15:07;17.90;;;10.73;;
68188;SDS011;66299;47.514;19.218;2023-09-18T02:17:38;18.20;;;11.02;;
68188;SDS011;66299;47.514;19.218;2023-09-18T02:20:07;19.13;;;10.70;;
68188;SDS011;66299;47.514;19.218;2023-09-18T02:22:39;18.95;;;10.50;;
68188;SDS011;66299;47.514;19.218;2023-09-18T02:25:09;20.90;;;11.75;;
68188;SDS011;66299;47.514;19.218;2023-09-18T02:27:39;19.00;;;10.82;;
68188;SDS011;66299;47.514;19.218;2023-09-18T02:30:08;17.95;;;10.15;;
68188;SDS011;66299;47.514;19.218;2023-09-18T02:32:38;22.23;;;10.90;;
68188;SDS011;66299;47.514;19.218;2023-09-18T02:35:07;21.00;;;10.77;;
68188;SDS011;66299;47.514;19.218;2023-09-18T02:37:36;21.95;;;11.20;;
68188;SDS011;66299;47.514;19.218;2023-09-18T02:40:05;17.55;;;10.32;;
68188;SDS011;66299;47.514;19.218;2023-09-18T02:42:39;18.88;;;10.40;;
68188;SDS011;66299;47.514;19.218;2023-09-18T02:45:08;18.23;;;10.67;;
68188;SDS011;66299;47.514;19.218;2023-09-18T02:47:41;18.17;;;10.65;;
68188;SDS011;66299;47.514;19.218;2023-09-18T02:50:10;19.38;;;10.48;;
68188;SDS011;66299;47.514;19.218;2023-09-18T02:52:40;18.05;;;10.48;;
68188;SDS011;66299;47.514;19.218;2023-09-18T02:55:09;17.33;;;9.88;;
68188;SDS011;66299;47.514;19.218;2023-09-18T02:57:40;17.23;;;10.23;;
68188;SDS011;66299;47.514;19.218;2023-09-18T03:00:09;20.27;;;10.90;;
68188;SDS011;66299;47.514;19.218;2023-09-18T03:02:38;18.17;;;10.45;;
68188;SDS011;66299;47.514;19.218;2023-09-18T03:05:07;19.65;;;10.65;;
68188;SDS011;66299;47.514;19.218;2023-09-18T03:07:43;17.77;;;10.82;;
68188;SDS011;66299;47.514;19.218;2023-09-18T03:10:14;18.90;;;10.55;;
68188;SDS011;66299;47.514;19.218;2023-09-18T03:12:49;17.70;;;10.65;;
68188;SDS011;66299;47.514;19.218;2023-09-18T03:15:18;18.40;;;10.68;;
68188;SDS011;66299;47.514;19.218;2023-09-18T03:17:48;17.75;;;10.27;;
68188;SDS011;66299;47.514;19.218;2023-09-18T03:20:21;19.83;;;11.48;;
68188;SDS011;66299;47.514;19.218;2023-09-18T03:22:51;20.98;;;10.63;;
68188;SDS011;66299;47.514;19.218;2023-09-18T03:25:26;17.65;;;10.65;;
68188;SDS011;66299;47.514;19.218;2023-09-18T03:28:15;20.33;;;10.82;;
68188;SDS011;66299;47.514;19.218;2023-09-18T03:30:43;17.67;;;10.93;;
68188;SDS011;66299;47.514;19.218;2023-09-18T03:33:15;19.30;;;11.35;;
68188;SDS011;66299;47.514;19.218;2023-09-18T03:35:46;23.52;;;11.95;;
68188;SDS011;66299;47.514;19.218;2023-09-18T03:38:16;18.13;;;11.02;;
68188;SDS011;66299;47.514;19.218;2023-09-18T03:40:48;19.98;;;11.02;;
68188;SDS011;66299;47.514;19.218;2023-09-18T03:43:18;19.73;;;11.93;;
68188;SDS011;66299;47.514;19.218;2023-09-18T03:45:48;21.50;;;11.82;;
68188;SDS011;66299;47.514;19.218;2023-09-18T03:48:18;19.35;;;11.82;;
68188;SDS011;66299;47.514;19.218;2023-09-18T03:50:49;21.23;;;12.48;;
68188;SDS011;66299;47.514;19.218;2023-09-18T03:53:18;22.70;;;12.40;;
68188;SDS011;66299;47.514;19.218;2023-09-18T03:55:49;20.83;;;12.33;;
68188;SDS011;66299;47.514;19.218;2023-09-18T03:58:21;21.75;;;12.30;;
68188;SDS011;66299;47.514;19.218;2023-09-18T04:00:50;19.27;;;11.75;;
68188;SDS011;66299;47.514;19.218;2023-09-18T04:05:50;22.23;;;12.48;;
68188;SDS011;66299;47.514;19.218;2023-09-18T04:08:21;21.95;;;12.73;;
68188;SDS011;66299;47.514;19.218;2023-09-18T04:10:51;23.05;;;12.73;;
68188;SDS011;66299;47.514;19.218;2023-09-18T04:13:25;20.52;;;12.85;;
68188;SDS011;66299;47.514;19.218;2023-09-18T04:15:54;20.35;;;12.85;;
68188;SDS011;66299;47.514;19.218;2023-09-18T04:18:24;23.58;;;12.82;;
68188;SDS011;66299;47.514;19.218;2023-09-18T04:20:53;23.65;;;12.45;;
68188;SDS011;66299;47.514;19.218;2023-09-18T04:23:24;22.48;;;13.02;;
68188;SDS011;66299;47.514;19.218;2023-09-18T04:25:54;23.20;;;13.35;;
68188;SDS011;66299;47.514;19.218;2023-09-18T04:28:26;22.37;;;13.00;;
68188;SDS011;66299;47.514;19.218;2023-09-18T04:33:25;24.08;;;13.63;;
68188;SDS011;66299;47.514;19.218;2023-09-18T04:35:56;21.65;;;13.55;;
68188;SDS011;66299;47.514;19.218;2023-09-18T04:38:28;25.27;;;13.52;;
68188;SDS011;66299;47.514;19.218;2023-09-18T04:41:00;24.27;;;13.05;;
68188;SDS011;66299;47.514;19.218;2023-09-18T04:43:31;24.65;;;13.57;;
68188;SDS011;66299;47.514;19.218;2023-09-18T04:45:59;21.15;;;13.23;;
68188;SDS011;66299;47.514;19.218;2023-09-18T04:48:33;23.13;;;13.35;;
68188;SDS011;66299;47.514;19.218;2023-09-18T04:51:03;23.27;;;13.02;;
68188;SDS011;66299;47.514;19.218;2023-09-18T04:53:33;22.52;;;13.63;;
68188;SDS011;66299;47.514;19.218;2023-09-18T04:56:02;21.42;;;12.95;;
68188;SDS011;66299;47.514;19.218;2023-09-18T04:58:35;25.27;;;13.90;;
68188;SDS011;66299;47.514;19.218;2023-09-18T05:01:04;24.77;;;14.07;;
68188;SDS011;66299;47.514;19.218;2023-09-18T05:03:34;23.15;;;14.15;;
68188;SDS011;66299;47.514;19.218;2023-09-18T05:06:07;25.77;;;14.07;;
68188;SDS011;66299;47.514;19.218;2023-09-18T05:08:38;24.77;;;13.65;;
68188;SDS011;66299;47.514;19.218;2023-09-18T05:11:08;25.35;;;13.82;;
68188;SDS011;66299;47.514;19.218;2023-09-18T05:13:42;24.60;;;13.98;;
68188;SDS011;66299;47.514;19.218;2023-09-18T05:16:10;22.65;;;13.75;;
68188;SDS011;66299;47.514;19.218;2023-09-18T05:18:41;24.90;;;14.27;;
68188;SDS011;66299;47.514;19.218;2023-09-18T05:21:10;23.95;;;13.57;;
68188;SDS011;66299;47.514;19.218;2023-09-18T05:23:39;25.45;;;13.60;;
68188;SDS011;66299;47.514;19.218;2023-09-18T05:26:07;22.63;;;13.80;;
68188;SDS011;66299;47.514;19.218;2023-09-18T05:28:36;23.02;;;13.75;;
68188;SDS011;66299;47.514;19.218;2023-09-18T05:31:08;24.35;;;13.50;;
68188;SDS011;66299;47.514;19.218;2023-09-18T05:33:40;24.23;;;13.05;;
68188;SDS011;66299;47.514;19.218;2023-09-18T05:36:09;21.85;;;13.05;;
68188;SDS011;66299;47.514;19.218;2023-09-18T05:38:39;20.67;;;12.93;;
68188;SDS011;66299;47.514;19.218;2023-09-18T05:41:10;21.38;;;11.88;;
68188;SDS011;66299;47.514;19.218;2023-09-18T05:43:40;22.02;;;11.85;;
68188;SDS011;66299;47.514;19.218;2023-09-18T05:46:11;21.83;;;12.32;;
68188;SDS011;66299;47.514;19.218;2023-09-18T05:48:42;24.17;;;12.40;;
68188;SDS011;66299;47.514;19.218;2023-09-18T05:51:14;22.15;;;11.95;;
68188;SDS011;66299;47.514;19.218;2023-09-18T05:53:43;25.00;;;12.00;;
68188;SDS011;66299;47.514;19.218;2023-09-18T05:56:11;19.55;;;11.73;;
68188;SDS011;66299;47.514;19.218;2023-09-18T05:58:41;21.42;;;11.05;;
68188;SDS011;66299;47.514;19.218;2023-09-18T06:01:16;26.83;;;11.77;;
68188;SDS011;66299;47.514;19.218;2023-09-18T06:03:44;23.53;;;11.60;;
68188;SDS011;66299;47.514;19.218;2023-09-18T06:06:15;22.33;;;11.10;;
68188;SDS011;66299;47.514;19.218;2023-09-18T06:08:46;21.55;;;11.50;;
68188;SDS011;66299;47.514;19.218;2023-09-18T06:11:25;22.65;;;11.65;;
68188;SDS011;66299;47.514;19.218;2023-09-18T06:13:59;18.27;;;11.35;;
68188;SDS011;66299;47.514;19.218;2023-09-18T06:16:32;17.20;;;10.65;;
68188;SDS011;66299;47.514;19.218;2023-09-18T06:19:02;20.90;;;10.88;;
68188;SDS011;66299;47.514;19.218;2023-09-18T06:21:31;22.00;;;10.40;;
68188;SDS011;66299;47.514;19.218;2023-09-18T06:24:01;17.73;;;10.57;;
68188;SDS011;66299;47.514;19.218;2023-09-18T06:26:31;20.20;;;11.18;;
68188;SDS011;66299;47.514;19.218;2023-09-18T06:29:05;18.60;;;10.27;;
68188;SDS011;66299;47.514;19.218;2023-09-18T06:31:40;19.52;;;10.77;;
68188;SDS011;66299;47.514;19.218;2023-09-18T06:34:13;16.67;;;9.80;;
68188;SDS011;66299;47.514;19.218;2023-09-18T06:36:43;19.30;;;10.05;;
68188;SDS011;66299;47.514;19.218;2023-09-18T06:39:15;16.80;;;9.75;;
68188;SDS011;66299;47.514;19.218;2023-09-18T06:41:47;18.23;;;9.65;;
68188;SDS011;66299;47.514;19.218;2023-09-18T06:44:23;18.30;;;9.70;;
68188;SDS011;66299;47.514;19.218;2023-09-18T06:46:56;19.52;;;9.30;;
68188;SDS011;66299;47.514;19.218;2023-09-18T06:49:27;16.08;;;9.30;;
68188;SDS011;66299;47.514;19.218;2023-09-18T06:51:57;15.57;;;8.80;;
68188;SDS011;66299;47.514;19.218;2023-09-18T06:54:31;16.40;;;9.45;;
68188;SDS011;66299;47.514;19.218;2023-09-18T06:57:00;16.63;;;9.40;;
68188;SDS011;66299;47.514;19.218;2023-09-18T06:59:31;20.70;;;9.88;;
68188;SDS011;66299;47.514;19.218;2023-09-18T07:02:03;15.50;;;9.20;;
68188;SDS011;66299;47.514;19.218;2023-09-18T07:04:34;16.73;;;8.80;;
68188;SDS011;66299;47.514;19.218;2023-09-18T07:07:13;20.05;;;8.98;;
68188;SDS011;66299;47.514;19.218;2023-09-18T07:09:51;16.83;;;9.05;;
68188;SDS011;66299;47.514;19.218;2023-09-18T07:12:34;18.50;;;8.80;;
68188;SDS011;66299;47.514;19.218;2023-09-18T07:15:04;19.35;;;9.30;;
68188;SDS011;66299;47.514;19.218;2023-09-18T07:17:38;16.63;;;9.23;;
68188;SDS011;66299;47.514;19.218;2023-09-18T07:20:09;19.73;;;8.82;;
68188;SDS011;66299;47.514;19.218;2023-09-18T07:22:45;17.08;;;8.90;;
68188;SDS011;66299;47.514;19.218;2023-09-18T07:25:16;17.27;;;8.50;;
68188;SDS011;66299;47.514;19.218;2023-09-18T07:27:45;19.17;;;8.97;;
68188;SDS011;66299;47.514;19.218;2023-09-18T07:32:56;121.38;;;16.80;;
68188;SDS011;66299;47.514;19.218;2023-09-18T07:35:25;19.35;;;8.30;;
68188;SDS011;66299;47.514;19.218;2023-09-18T07:37:55;16.80;;;8.40;;
68188;SDS011;66299;47.514;19.218;2023-09-18T07:40:24;18.10;;;8.07;;
68188;SDS011;66299;47.514;19.218;2023-09-18T07:42:53;15.40;;;8.52;;
68188;SDS011;66299;47.514;19.218;2023-09-18T07:45:26;16.83;;;8.52;;
68188;SDS011;66299;47.514;19.218;2023-09-18T07:48:02;23.25;;;8.38;;
68188;SDS011;66299;47.514;19.218;2023-09-18T07:50:33;14.98;;;8.05;;
68188;SDS011;66299;47.514;19.218;2023-09-18T07:53:05;16.45;;;7.93;;
68188;SDS011;66299;47.514;19.218;2023-09-18T07:55:35;16.75;;;8.05;;
68188;SDS011;66299;47.514;19.218;2023-09-18T07:58:06;15.75;;;8.38;;
68188;SDS011;66299;47.514;19.218;2023-09-18T08:00:40;14.80;;;8.35;;
68188;SDS011;66299;47.514;19.218;2023-09-18T08:03:14;16.50;;;8.43;;
68188;SDS011;66299;47.514;19.218;2023-09-18T08:05:45;14.45;;;8.13;;
68188;SDS011;66299;47.514;19.218;2023-09-18T08:08:18;14.32;;;8.25;;
68188;SDS011;66299;47.514;19.218;2023-09-18T08:10:48;16.35;;;8.18;;
68188;SDS011;66299;47.514;19.218;2023-09-18T08:13:20;16.05;;;8.02;;
68188;SDS011;66299;47.514;19.218;2023-09-18T08:15:50;18.60;;;8.15;;
68188;SDS011;66299;47.514;19.218;2023-09-18T08:18:22;18.95;;;8.43;;
68188;SDS011;66299;47.514;19.218;2023-09-18T08:20:55;14.88;;;8.23;;
68188;SDS011;66299;47.514;19.218;2023-09-18T08:23:26;15.55;;;8.63;;
68188;SDS011;66299;47.514;19.218;2023-09-18T08:25:57;16.80;;;8.32;;
68188;SDS011;66299;47.514;19.218;2023-09-18T08:28:28;15.30;;;8.25;;
68188;SDS011;66299;47.514;19.218;2023-09-18T08:31:00;17.00;;;7.95;;
68188;SDS011;66299;47.514;19.218;2023-09-18T08:33:31;17.47;;;8.07;;
68188;SDS011;66299;47.514;19.218;2023-09-18T08:36:03;17.42;;;8.18;;
68188;SDS011;66299;47.514;19.218;2023-09-18T08:38:31;15.52;;;8.02;;
68188;SDS011;66299;47.514;19.218;2023-09-18T08:41:01;15.60;;;7.60;;
68188;SDS011;66299;47.514;19.218;2023-09-18T08:43:33;13.88;;;7.72;;
68188;SDS011;66299;47.514;19.218;2023-09-18T08:46:05;15.63;;;7.85;;
68188;SDS011;66299;47.514;19.218;2023-09-18T08:48:37;16.42;;;7.88;;
68188;SDS011;66299;47.514;19.218;2023-09-18T08:51:10;16.27;;;7.65;;
68188;SDS011;66299;47.514;19.218;2023-09-18T08:53:41;17.05;;;8.05;;
68188;SDS011;66299;47.514;19.218;2023-09-18T08:56:18;16.38;;;7.80;;
68188;SDS011;66299;47.514;19.218;2023-09-18T08:58:53;16.35;;;8.10;;
68188;SDS011;66299;47.514;19.218;2023-09-18T09:01:23;15.85;;;7.85;;
68188;SDS011;66299;47.514;19.218;2023-09-18T09:06:25;19.20;;;7.60;;
68188;SDS011;66299;47.514;19.218;2023-09-18T09:08:58;16.55;;;7.88;;
68188;SDS011;66299;47.514;19.218;2023-09-18T09:11:28;17.90;;;7.80;;
68188;SDS011;66299;47.514;19.218;2023-09-18T09:14:08;12.43;;;7.63;;
68188;SDS011;66299;47.514;19.218;2023-09-18T09:16:39;15.35;;;7.45;;
68188;SDS011;66299;47.514;19.218;2023-09-18T09:21:40;17.08;;;7.55;;
68188;SDS011;66299;47.514;19.218;2023-09-18T09:24:11;12.88;;;7.28;;
68188;SDS011;66299;47.514;19.218;2023-09-18T09:26:41;14.00;;;7.40;;
68188;SDS011;66299;47.514;19.218;2023-09-18T09:29:17;16.38;;;7.43;;
68188;SDS011;66299;47.514;19.218;2023-09-18T09:31:52;15.48;;;7.30;;
68188;SDS011;66299;47.514;19.218;2023-09-18T09:34:28;12.35;;;6.82;;
68188;SDS011;66299;47.514;19.218;2023-09-18T09:36:58;17.90;;;7.47;;
68188;SDS011;66299;47.514;19.218;2023-09-18T09:39:35;17.58;;;7.72;;
68188;SDS011;66299;47.514;19.218;2023-09-18T09:42:15;18.23;;;7.32;;
68188;SDS011;66299;47.514;19.218;2023-09-18T09:45:00;14.93;;;6.85;;
68188;SDS011;66299;47.514;19.218;2023-09-18T09:47:35;15.75;;;6.97;;
68188;SDS011;66299;47.514;19.218;2023-09-18T09:50:07;14.35;;;6.93;;
68188;SDS011;66299;47.514;19.218;2023-09-18T09:52:42;17.48;;;7.00;;
68188;SDS011;66299;47.514;19.218;2023-09-18T09:55:20;12.63;;;7.05;;
68188;SDS011;66299;47.514;19.218;2023-09-18T09:57:52;15.57;;;6.90;;
68188;SDS011;66299;47.514;19.218;2023-09-18T10:00:28;18.30;;;7.00;;
68188;SDS011;66299;47.514;19.218;2023-09-18T10:03:04;14.10;;;7.13;;
68188;SDS011;66299;47.514;19.218;2023-09-18T10:05:38;15.07;;;7.20;;
68188;SDS011;66299;47.514;19.218;2023-09-18T10:08:13;15.45;;;6.93;;
68188;SDS011;66299;47.514;19.218;2023-09-18T10:10:47;15.48;;;7.38;;
68188;SDS011;66299;47.514;19.218;2023-09-18T10:13:20;13.20;;;6.75;;
68188;SDS011;66299;47.514;19.218;2023-09-18T10:15:51;13.25;;;7.00;;
68188;SDS011;66299;47.514;19.218;2023-09-18T10:18:22;16.13;;;7.03;;
68188;SDS011;66299;47.514;19.218;2023-09-18T10:21:09;13.57;;;6.50;;
68188;SDS011;66299;47.514;19.218;2023-09-18T10:23:46;15.50;;;7.20;;
68188;SDS011;66299;47.514;19.218;2023-09-18T10:26:26;16.77;;;7.15;;
68188;SDS011;66299;47.514;19.218;2023-09-18T10:29:01;16.67;;;7.13;;
68188;SDS011;66299;47.514;19.218;2023-09-18T10:31:35;14.90;;;7.20;;
68188;SDS011;66299;47.514;19.218;2023-09-18T10:34:09;12.93;;;6.80;;
68188;SDS011;66299;47.514;19.218;2023-09-18T10:36:46;11.93;;;6.57;;
68188;SDS011;66299;47.514;19.218;2023-09-18T10:39:17;12.73;;;6.75;;
68188;SDS011;66299;47.514;19.218;2023-09-18T10:41:52;15.77;;;6.80;;
68188;SDS011;66299;47.514;19.218;2023-09-18T10:44:24;12.68;;;6.75;;
68188;SDS011;66299;47.514;19.218;2023-09-18T10:46:55;14.95;;;6.78;;
68188;SDS011;66299;47.514;19.218;2023-09-18T10:49:27;13.32;;;6.40;;
68188;SDS011;66299;47.514;19.218;2023-09-18T10:52:00;12.77;;;7.18;;
68188;SDS011;66299;47.514;19.218;2023-09-18T10:54:31;13.18;;;6.80;;
68188;SDS011;66299;47.514;19.218;2023-09-18T10:57:04;12.57;;;6.55;;
68188;SDS011;66299;47.514;19.218;2023-09-18T10:59:41;13.30;;;6.15;;
68188;SDS011;66299;47.514;19.218;2023-09-18T11:02:18;15.95;;;6.63;;
68188;SDS011;66299;47.514;19.218;2023-09-18T11:04:50;13.93;;;6.30;;
68188;SDS011;66299;47.514;19.218;2023-09-18T11:07:26;13.07;;;6.25;;
68188;SDS011;66299;47.514;19.218;2023-09-18T11:09:55;15.43;;;6.40;;
68188;SDS011;66299;47.514;19.218;2023-09-18T11:15:26;14.68;;;6.45;;
68188;SDS011;66299;47.514;19.218;2023-09-18T11:18:01;16.00;;;6.57;;
68188;SDS011;66299;47.514;19.218;2023-09-18T11:20:35;15.75;;;6.47;;
68188;SDS011;66299;47.514;19.218;2023-09-18T11:23:16;12.60;;;6.82;;
68188;SDS011;66299;47.514;19.218;2023-09-18T11:26:05;16.38;;;6.55;;
68188;SDS011;66299;47.514;19.218;2023-09-18T11:28:41;12.93;;;6.78;;
68188;SDS011;66299;47.514;19.218;2023-09-18T11:31:13;15.47;;;7.03;;
68188;SDS011;66299;47.514;19.218;2023-09-18T11:33:43;12.23;;;6.90;;
68188;SDS011;66299;47.514;19.218;2023-09-18T11:36:13;16.60;;;7.28;;
68188;SDS011;66299;47.514;19.218;2023-09-18T11:39:01;15.32;;;7.10;;
68188;SDS011;66299;47.514;19.218;2023-09-18T11:41:35;13.63;;;6.78;;
68188;SDS011;66299;47.514;19.218;2023-09-18T11:47:10;14.25;;;6.97;;
68188;SDS011;66299;47.514;19.218;2023-09-18T11:49:52;15.02;;;7.25;;
68188;SDS011;66299;47.514;19.218;2023-09-18T11:52:25;19.25;;;6.75;;
68188;SDS011;66299;47.514;19.218;2023-09-18T11:55:00;18.13;;;7.28;;
68188;SDS011;66299;47.514;19.218;2023-09-18T11:57:36;15.38;;;7.40;;
68188;SDS011;66299;47.514;19.218;2023-09-18T12:00:17;18.00;;;7.68;;
68188;SDS011;66299;47.514;19.218;2023-09-18T12:02:51;13.25;;;7.53;;
68188;SDS011;66299;47.514;19.218;2023-09-18T12:05:22;18.73;;;7.90;;
68188;SDS011;66299;47.514;19.218;2023-09-18T12:07:53;14.32;;;7.55;;
68188;SDS011;66299;47.514;19.218;2023-09-18T12:10:27;13.82;;;7.53;;
68188;SDS011;66299;47.514;19.218;2023-09-18T12:13:00;17.70;;;7.68;;
68188;SDS011;66299;47.514;19.218;2023-09-18T12:15:30;16.70;;;7.55;;
68188;SDS011;66299;47.514;19.218;2023-09-18T12:18:07;15.90;;;7.78;;
68188;SDS011;66299;47.514;19.218;2023-09-18T12:20:45;13.68;;;7.45;;
68188;SDS011;66299;47.514;19.218;2023-09-18T12:23:17;14.65;;;7.40;;
68188;SDS011;66299;47.514;19.218;2023-09-18T12:25:51;17.35;;;8.10;;
68188;SDS011;66299;47.514;19.218;2023-09-18T12:28:31;15.48;;;7.90;;
68188;SDS011;66299;47.514;19.218;2023-09-18T12:31:03;15.30;;;8.20;;
68188;SDS011;66299;47.514;19.218;2023-09-18T12:33:36;19.27;;;7.97;;
68188;SDS011;66299;47.514;19.218;2023-09-18T12:36:08;15.48;;;7.55;;
68188;SDS011;66299;47.514;19.218;2023-09-18T12:38:41;16.17;;;7.88;;
68188;SDS011;66299;47.514;19.218;2023-09-18T12:41:15;22.63;;;7.82;;
68188;SDS011;66299;47.514;19.218;2023-09-18T12:43:45;13.48;;;7.55;;
68188;SDS011;66299;47.514;19.218;2023-09-18T12:46:14;15.85;;;7.90;;
68188;SDS011;66299;47.514;19.218;2023-09-18T12:48:47;14.35;;;7.50;;
68188;SDS011;66299;47.514;19.218;2023-09-18T12:51:28;16.85;;;7.63;;
68188;SDS011;66299;47.514;19.218;2023-09-18T12:54:05;16.80;;;8.10;;
68188;SDS011;66299;47.514;19.218;2023-09-18T12:56:41;14.32;;;7.65;;
68188;SDS011;66299;47.514;19.218;2023-09-18T12:59:11;17.77;;;7.43;;
68188;SDS011;66299;47.514;19.218;2023-09-18T13:01:48;14.90;;;7.78;;
68188;SDS011;66299;47.514;19.218;2023-09-18T13:04:20;12.65;;;7.18;;
68188;SDS011;66299;47.514;19.218;2023-09-18T13:09:32;15.65;;;7.40;;
68188;SDS011;66299;47.514;19.218;2023-09-18T13:12:03;16.58;;;7.57;;
68188;SDS011;66299;47.514;19.218;2023-09-18T13:14:59;30.80;;;8.32;;
68188;SDS011;66299;47.514;19.218;2023-09-18T13:17:42;14.73;;;7.32;;
68188;SDS011;66299;47.514;19.218;2023-09-18T13:20:16;18.40;;;7.47;;
68188;SDS011;66299;47.514;19.218;2023-09-18T13:22:47;20.00;;;7.70;;
68188;SDS011;66299;47.514;19.218;2023-09-18T13:25:22;16.27;;;7.32;;
68188;SDS011;66299;47.514;19.218;2023-09-18T13:27:55;14.40;;;7.72;;
68188;SDS011;66299;47.514;19.218;2023-09-18T13:30:28;16.75;;;7.07;;
68188;SDS011;66299;47.514;19.218;2023-09-18T13:33:01;23.48;;;7.43;;
68188;SDS011;66299;47.514;19.218;2023-09-18T13:35:37;15.52;;;7.10;;
68188;SDS011;66299;47.514;19.218;2023-09-18T13:38:11;17.42;;;7.45;;
68188;SDS011;66299;47.514;19.218;2023-09-18T13:40:41;18.38;;;7.13;;
68188;SDS011;66299;47.514;19.218;2023-09-18T13:43:18;15.95;;;7.15;;
68188;SDS011;66299;47.514;19.218;2023-09-18T13:45:52;16.90;;;7.40;;
68188;SDS011;66299;47.514;19.218;2023-09-18T13:48:27;14.38;;;7.30;;
68188;SDS011;66299;47.514;19.218;2023-09-18T13:50:56;12.53;;;7.30;;
68188;SDS011;66299;47.514;19.218;2023-09-18T13:53:25;18.38;;;7.53;;
68188;SDS011;66299;47.514;19.218;2023-09-18T13:55:54;17.08;;;7.53;;
68188;SDS011;66299;47.514;19.218;2023-09-18T13:58:25;16.67;;;7.30;;
68188;SDS011;66299;47.514;19.218;2023-09-18T14:00:57;14.15;;;7.35;;
68188;SDS011;66299;47.514;19.218;2023-09-18T14:03:25;16.38;;;7.30;;
68188;SDS011;66299;47.514;19.218;2023-09-18T14:05:54;14.18;;;7.18;;
68188;SDS011;66299;47.514;19.218;2023-09-18T14:08:23;16.25;;;7.38;;
68188;SDS011;66299;47.514;19.218;2023-09-18T14:10:51;13.98;;;7.20;;
68188;SDS011;66299;47.514;19.218;2023-09-18T14:13:21;16.80;;;7.47;;
68188;SDS011;66299;47.514;19.218;2023-09-18T14:15:53;12.57;;;7.07;;
68188;SDS011;66299;47.514;19.218;2023-09-18T14:18:23;17.02;;;7.55;;
68188;SDS011;66299;47.514;19.218;2023-09-18T14:20:55;13.82;;;7.15;;
68188;SDS011;66299;47.514;19.218;2023-09-18T14:23:26;16.27;;;7.40;;
68188;SDS011;66299;47.514;19.218;2023-09-18T14:25:55;15.65;;;7.40;;
68188;SDS011;66299;47.514;19.218;2023-09-18T14:28:23;13.30;;;7.13;;
68188;SDS011;66299;47.514;19.218;2023-09-18T14:30:53;13.55;;;7.05;;
68188;SDS011;66299;47.514;19.218;2023-09-18T14:33:25;18.20;;;7.10;;
68188;SDS011;66299;47.514;19.218;2023-09-18T14:35:54;15.90;;;7.20;;
68188;SDS011;66299;47.514;19.218;2023-09-18T14:38:23;16.15;;;7.38;;
68188;SDS011;66299;47.514;19.218;2023-09-18T14:40:52;16.15;;;7.50;;
68188;SDS011;66299;47.514;19.218;2023-09-18T14:43:28;14.05;;;7.20;;
68188;SDS011;66299;47.514;19.218;2023-09-18T14:45:58;16.25;;;7.50;;
68188;SDS011;66299;47.514;19.218;2023-09-18T14:48:27;18.35;;;7.35;;
68188;SDS011;66299;47.514;19.218;2023-09-18T14:50:59;21.98;;;7.80;;
68188;SDS011;66299;47.514;19.218;2023-09-18T14:53:28;15.68;;;7.45;;
68188;SDS011;66299;47.514;19.218;2023-09-18T14:55:58;14.43;;;7.13;;
68188;SDS011;66299;47.514;19.218;2023-09-18T14:58:28;23.13;;;7.60;;
68188;SDS011;66299;47.514;19.218;2023-09-18T15:00:59;17.58;;;7.95;;
68188;SDS011;66299;47.514;19.218;2023-09-18T15:03:27;16.75;;;7.63;;
68188;SDS011;66299;47.514;19.218;2023-09-18T15:05:57;18.77;;;7.50;;